LIRN/NAP METAR and TAF weather

Enter ICAO airport designator
Station Type Date Time Source
LIRN METAR 2019/06/26 17:50 UTC NOAA

LIRN 261750Z 07014KT 040V100 CAVOK 31/16 Q1018 NOSIG


Station Type Date Time Source
LIRN Decoded METAR 2019/06/26 17:50 UTC NOAA

Napoli / Capodichino, Italy (LIRN) 40-51N 014-18E 72M
Jun 26, 2019 - 01:50 PM EDT / 2019.06.26 1750 UTC
Wind: from the ENE (070 degrees) at 16 MPH (14 KT) (direction variable):0
Visibility: greater than 7 mile(s):0
Temperature: 87 F (31 C)
Dew Point: 60 F (16 C)
Relative Humidity: 40%
Pressure (altimeter): 30.06 in. Hg (1018 hPa)
ob: LIRN 261750Z 07014KT 040V100 CAVOK 31/16 Q1018 NOSIG
cycle: 18

Station Type Date Time Source
LIRN TAF 2019/06/26 18:21 UTC NOAA

TAF LIRN 261700Z 2618/2718 VRB04KT CAVOK
BECMG 2708/2710 23012KT

Example: see airport list